createdAt,value
2022-09-28T00:00:07.767Z,1.55
2022-09-28T00:02:40.043Z,1.15
2022-09-28T00:05:12.668Z,1.75
2022-09-28T00:07:44.573Z,0.80
2022-09-28T00:10:16.439Z,0.80
2022-09-28T00:12:49.677Z,2.38
2022-09-28T00:15:22.063Z,1.60
2022-09-28T00:17:53.823Z,1.33
2022-09-28T00:20:25.631Z,0.60
2022-09-28T00:22:57.426Z,5.13
2022-09-28T00:25:29.818Z,4.57
2022-09-28T00:28:02.979Z,1.02
2022-09-28T00:30:34.698Z,2.30
2022-09-28T00:33:06.441Z,0.98
2022-09-28T00:35:38.260Z,1.10
2022-09-28T00:38:09.988Z,0.80
2022-09-28T00:40:41.814Z,1.23
2022-09-28T00:43:18.851Z,0.95
2022-09-28T00:45:58.918Z,0.82
2022-09-28T00:48:33.952Z,0.63
2022-09-28T00:51:10.839Z,3.22
2022-09-28T00:53:44.459Z,0.88
2022-09-28T00:56:20.395Z,4.32
2022-09-28T00:58:54.710Z,1.85
2022-09-28T01:01:27.253Z,2.17
2022-09-28T01:03:59.640Z,2.90
2022-09-28T01:06:34.408Z,1.58
2022-09-28T01:09:10.572Z,1.17
2022-09-28T01:11:43.304Z,1.55
2022-09-28T01:14:18.029Z,2.75
2022-09-28T01:16:58.822Z,0.68
2022-09-28T01:19:55.358Z,1.00
2022-09-28T01:22:42.078Z,2.42
2022-09-28T01:25:25.037Z,0.60
2022-09-28T01:28:01.822Z,0.88
2022-09-28T01:30:41.207Z,1.90
2022-09-28T01:33:19.220Z,1.88
2022-09-28T01:35:55.015Z,0.90
2022-09-28T01:38:30.836Z,3.75
2022-09-28T01:41:04.018Z,3.70
2022-09-28T01:43:40.450Z,0.90
2022-09-28T01:46:14.313Z,1.17
2022-09-28T01:48:51.477Z,1.75
2022-09-28T01:51:31.757Z,2.38
2022-09-28T01:54:12.707Z,4.45
2022-09-28T01:56:49.030Z,2.00
2022-09-28T01:59:26.971Z,1.88
2022-09-28T02:02:04.125Z,2.47
2022-09-28T02:04:39.924Z,2.33
2022-09-28T02:07:16.406Z,2.00
2022-09-28T02:09:53.273Z,2.28
2022-09-28T02:12:32.610Z,3.67
2022-09-28T02:15:12.760Z,1.92
2022-09-28T02:17:45.055Z,5.18
2022-09-28T02:20:17.372Z,0.90
2022-09-28T02:22:51.555Z,1.80
2022-09-28T02:25:29.918Z,2.58
2022-09-28T02:28:04.616Z,1.88
2022-09-28T02:30:39.771Z,1.23
2022-09-28T02:33:14.174Z,1.42
2022-09-28T02:35:46.871Z,3.58
2022-09-28T02:38:18.651Z,0.60
2022-09-28T02:41:02.547Z,1.40
2022-09-28T02:43:44.937Z,2.20
2022-09-28T02:46:27.269Z,2.92
2022-09-28T02:49:22.391Z,1.23
2022-09-28T02:52:12.339Z,1.33
2022-09-28T02:55:16.434Z,2.20
2022-09-28T02:58:03.596Z,2.42
2022-09-28T03:00:42.543Z,1.70
2022-09-28T03:03:24.112Z,5.38
2022-09-28T03:06:02.009Z,4.32
2022-09-28T03:08:40.895Z,2.08
2022-09-28T03:11:17.860Z,2.97
2022-09-28T03:13:50.266Z,3.28
2022-09-28T03:16:22.172Z,2.97
2022-09-28T03:18:55.289Z,2.72
2022-09-28T03:21:27.063Z,7.50
2022-09-28T03:23:58.806Z,3.30
2022-09-28T03:26:30.542Z,3.70
2022-09-28T03:29:02.350Z,4.18
2022-09-28T03:31:35.134Z,2.55
2022-09-28T03:34:08.261Z,3.42
2022-09-28T03:36:40.032Z,4.55
2022-09-28T03:39:11.796Z,4.95
2022-09-28T03:41:43.577Z,3.63
2022-09-28T03:44:15.319Z,3.75
2022-09-28T03:46:47.060Z,3.55
2022-09-28T03:49:20.176Z,4.50
2022-09-28T03:51:51.955Z,3.33
2022-09-28T03:54:23.811Z,3.35
2022-09-28T03:56:55.847Z,5.70
2022-09-28T03:59:27.617Z,9.50
2022-09-28T04:01:59.399Z,3.90
2022-09-28T04:04:32.662Z,3.25
2022-09-28T04:07:04.473Z,3.20
2022-09-28T04:09:36.342Z,5.72
2022-09-28T04:12:08.103Z,3.83
2022-09-28T04:14:39.878Z,2.85
2022-09-28T04:17:11.620Z,4.00
2022-09-28T04:19:45.000Z,2.58
2022-09-28T04:24:48.736Z,3.13
2022-09-28T04:27:39.013Z,2.38
2022-09-28T04:30:11.919Z,2.70
2022-09-28T04:32:46.178Z,3.65
2022-09-28T04:35:19.322Z,2.13
2022-09-28T04:37:51.399Z,1.90
2022-09-28T04:40:23.234Z,2.67
2022-09-28T04:42:55.577Z,4.72
2022-09-28T04:45:27.519Z,4.28
2022-09-28T04:47:59.373Z,3.72
2022-09-28T04:50:32.494Z,5.38
2022-09-28T04:53:04.294Z,4.00
2022-09-28T04:55:36.097Z,5.63
2022-09-28T04:58:07.860Z,4.15
2022-09-28T05:00:40.179Z,6.63
2022-09-28T05:03:12.022Z,3.78
2022-09-28T05:05:45.838Z,5.25
2022-09-28T05:08:18.170Z,2.63
2022-09-28T05:10:58.699Z,2.90
2022-09-28T05:13:31.298Z,3.95
2022-09-28T05:16:05.467Z,8.25
2022-09-28T05:18:37.574Z,4.05
2022-09-28T05:21:12.738Z,3.47
2022-09-28T05:23:47.064Z,4.95
2022-09-28T05:26:19.941Z,3.38
2022-09-28T05:28:52.105Z,3.15
2022-09-28T05:31:24.679Z,5.45
2022-09-28T05:33:58.244Z,4.13
2022-09-28T05:36:32.838Z,4.40
2022-09-28T05:39:05.650Z,7.95
2022-09-28T05:41:38.544Z,6.95
2022-09-28T05:44:11.639Z,6.60
2022-09-28T05:46:43.838Z,5.22
2022-09-28T05:49:17.742Z,8.85
2022-09-28T05:51:52.198Z,6.97
2022-09-28T05:54:24.532Z,5.43
2022-09-28T05:56:56.695Z,10.13
2022-09-28T05:59:30.376Z,4.80
2022-09-28T06:02:02.753Z,6.28
2022-09-28T06:04:35.430Z,6.97
2022-09-28T06:07:08.979Z,8.10
2022-09-28T06:12:13.350Z,3.50
2022-09-28T06:14:45.396Z,5.15
2022-09-28T06:17:17.503Z,7.20
2022-09-28T06:19:50.015Z,6.40
2022-09-28T06:22:23.520Z,12.40
2022-09-28T06:27:27.986Z,5.90
2022-09-28T06:30:02.556Z,3.70
2022-09-28T06:32:34.679Z,6.53
2022-09-28T06:35:09.013Z,5.00
2022-09-28T06:37:45.372Z,7.10
2022-09-28T06:40:18.011Z,6.10
2022-09-28T06:42:56.508Z,10.27
2022-09-28T06:45:30.346Z,6.40
2022-09-28T06:48:03.273Z,6.65
2022-09-28T06:50:37.640Z,10.65
2022-09-28T06:53:13.694Z,7.80
2022-09-28T06:55:49.760Z,5.85
2022-09-28T06:58:22.742Z,8.48
2022-09-28T07:01:00.715Z,9.15
2022-09-28T07:03:33.493Z,10.18
2022-09-28T07:06:06.006Z,10.10
2022-09-28T07:08:40.477Z,9.67
2022-09-28T07:11:13.418Z,8.18
2022-09-28T07:13:50.781Z,10.68
2022-09-28T07:16:27.934Z,9.48
2022-09-28T07:19:03.802Z,8.15
2022-09-28T07:21:35.701Z,10.38
2022-09-28T07:24:15.075Z,10.52
2022-09-28T07:26:46.883Z,14.25
2022-09-28T07:29:19.466Z,8.93
2022-09-28T07:31:53.554Z,10.10
2022-09-28T07:34:25.765Z,8.82
2022-09-28T07:36:59.355Z,17.92
2022-09-28T07:39:52.961Z,10.57
2022-09-28T07:42:29.646Z,9.65
2022-09-28T07:45:01.586Z,10.43
2022-09-28T07:47:35.195Z,11.00
2022-09-28T07:50:08.255Z,7.57
2022-09-28T07:52:40.342Z,8.43
2022-09-28T07:55:14.618Z,6.03
2022-09-28T07:57:48.065Z,10.43
2022-09-28T08:02:51.587Z,7.07
2022-09-28T08:05:23.361Z,4.95
2022-09-28T08:07:57.791Z,8.52
2022-09-28T08:10:31.524Z,7.80
2022-09-28T08:13:06.479Z,5.07
2022-09-28T08:15:40.401Z,6.85
2022-09-28T08:18:12.241Z,7.03
2022-09-28T08:21:02.831Z,8.25
2022-09-28T08:23:34.570Z,4.90
2022-09-28T08:26:10.987Z,9.60
2022-09-28T08:28:46.731Z,7.30
2022-09-28T08:33:53.723Z,7.97
2022-09-28T08:36:25.559Z,7.97
2022-09-28T08:38:57.335Z,6.53
2022-09-28T08:41:40.222Z,5.30
2022-09-28T08:44:15.815Z,7.68
2022-09-28T08:46:51.285Z,5.30
2022-09-28T08:49:29.697Z,6.10
2022-09-28T08:52:05.051Z,8.75
2022-09-28T08:54:44.105Z,10.40
2022-09-28T08:57:21.254Z,4.45
2022-09-28T08:59:55.809Z,4.97
2022-09-28T09:02:33.409Z,6.47
2022-09-28T09:05:11.541Z,3.30
2022-09-28T09:08:00.046Z,7.80
2022-09-28T09:10:47.001Z,6.00
2022-09-28T09:13:52.737Z,7.47
2022-09-28T09:16:39.278Z,6.00
2022-09-28T09:19:16.940Z,3.95
2022-09-28T09:21:58.062Z,5.20
2022-09-28T09:24:41.792Z,4.50
2022-09-28T09:30:02.618Z,5.75
2022-09-28T09:32:53.328Z,5.07
2022-09-28T09:56:47.793Z,9.05
2022-09-28T09:59:24.226Z,5.30
2022-09-28T10:14:41.540Z,2.75
2022-09-28T10:17:18.204Z,4.90
2022-09-28T10:19:49.995Z,5.40
2022-09-28T10:22:25.072Z,3.88
2022-09-28T10:24:58.359Z,3.40
2022-09-28T10:27:34.051Z,3.90
2022-09-28T10:30:15.594Z,7.15
2022-09-28T10:32:50.022Z,6.40
2022-09-28T10:35:24.881Z,3.65
2022-09-28T10:37:59.674Z,4.82
2022-09-28T10:40:40.761Z,5.60
2022-09-28T10:43:21.888Z,3.20
2022-09-28T10:46:07.400Z,7.63
2022-09-28T10:48:54.079Z,1.38
2022-09-28T10:51:40.698Z,3.75
2022-09-28T10:54:18.152Z,3.85
2022-09-28T10:56:51.697Z,5.45
2022-09-28T11:01:58.899Z,2.20
2022-09-28T11:04:39.860Z,5.47
2022-09-28T11:07:18.653Z,3.97
2022-09-28T11:09:52.285Z,4.97
2022-09-28T11:12:26.294Z,5.38
2022-09-28T11:15:00.503Z,4.10
2022-09-28T11:17:34.084Z,8.63
2022-09-28T11:23:20.353Z,5.20
2022-09-28T11:26:04.607Z,7.22
2022-09-28T11:28:38.201Z,5.25
2022-09-28T11:31:11.295Z,4.60
2022-09-28T11:33:46.364Z,3.90
2022-09-28T11:36:31.238Z,3.25
2022-09-28T11:39:11.256Z,6.78
2022-09-28T11:42:01.412Z,3.70
2022-09-28T11:44:39.062Z,4.90
2022-09-28T11:47:37.293Z,3.85
2022-09-28T12:13:40.133Z,2.10
2022-09-28T12:16:38.744Z,4.80
2022-09-28T12:19:16.075Z,2.75
2022-09-28T12:21:51.382Z,3.10
2022-09-28T12:24:28.674Z,2.45
2022-09-28T12:27:07.405Z,6.07
2022-09-28T12:29:43.039Z,5.22
2022-09-28T12:32:25.747Z,3.75
2022-09-28T12:37:43.561Z,6.40
2022-09-28T12:54:38.846Z,15.80
2022-09-28T12:57:35.987Z,4.82
2022-09-28T13:00:13.693Z,12.13
2022-09-28T13:03:13.640Z,5.60
2022-09-28T13:06:08.979Z,5.47
2022-09-28T13:08:50.843Z,6.88
2022-09-28T13:11:33.178Z,7.68
2022-09-28T13:14:30.377Z,12.93
2022-09-28T13:17:13.636Z,13.40
2022-09-28T13:19:51.636Z,9.05
2022-09-28T13:22:33.205Z,7.10
2022-09-28T13:25:14.527Z,3.42
2022-09-28T13:27:51.825Z,4.43
2022-09-28T13:30:25.594Z,5.95
2022-09-28T13:33:02.387Z,4.45
2022-09-28T13:35:34.916Z,4.28
2022-09-28T13:38:49.552Z,4.60
2022-09-28T13:41:29.726Z,4.30
2022-09-28T13:44:21.301Z,2.40
2022-09-28T13:47:21.107Z,2.92
2022-09-28T13:50:12.421Z,5.47
2022-09-28T13:52:49.710Z,2.05
2022-09-28T13:55:33.029Z,4.13
2022-09-28T13:58:14.609Z,5.25
2022-09-28T14:00:51.247Z,5.80
2022-09-28T14:03:28.280Z,9.65
2022-09-28T14:06:20.911Z,4.20
2022-09-28T14:09:09.885Z,4.60
2022-09-28T14:11:44.973Z,5.32
2022-09-28T14:14:29.329Z,6.78
2022-09-28T14:17:50.037Z,5.38
2022-09-28T14:20:25.223Z,4.70
2022-09-28T14:23:24.155Z,4.93
2022-09-28T14:26:13.250Z,4.15
2022-09-28T14:29:00.740Z,3.42
2022-09-28T14:31:32.488Z,4.50
2022-09-28T14:34:13.873Z,7.50
2022-09-28T14:37:07.789Z,5.57
2022-09-28T14:42:34.198Z,2.42
2022-09-28T14:45:35.961Z,6.57
2022-09-28T14:48:21.752Z,4.20
2022-09-28T14:50:55.700Z,11.20
2022-09-28T14:53:27.486Z,3.83
2022-09-28T14:56:07.629Z,4.78
2022-09-28T14:58:42.226Z,3.22
2022-09-28T15:01:20.150Z,1.77
2022-09-28T15:03:54.960Z,4.00
2022-09-28T15:06:29.346Z,3.75
2022-09-28T15:09:01.122Z,3.50
2022-09-28T15:11:34.420Z,1.65
2022-09-28T15:14:07.580Z,1.55
2022-09-28T15:16:39.330Z,1.48
2022-09-28T15:19:22.770Z,2.28
2022-09-28T15:24:31.402Z,2.30
2022-09-28T15:27:15.083Z,2.38
2022-09-28T15:32:28.631Z,4.75
2022-09-28T15:35:11.994Z,2.72
2022-09-28T15:37:44.869Z,8.63
2022-09-28T15:40:19.152Z,5.03
2022-09-28T15:42:54.816Z,2.55
2022-09-28T15:45:34.012Z,3.22
2022-09-28T15:48:20.064Z,4.35
2022-09-28T15:50:59.939Z,3.47
2022-09-28T15:53:32.942Z,4.03
2022-09-28T15:56:10.053Z,3.47
2022-09-28T15:58:43.506Z,3.72
2022-09-28T16:04:36.344Z,5.00
2022-09-28T16:07:23.406Z,8.77
2022-09-28T16:10:01.697Z,4.07
2022-09-28T16:12:43.496Z,4.05
2022-09-28T16:15:20.478Z,3.17
2022-09-28T16:17:54.876Z,6.20
2022-09-28T16:20:29.469Z,4.93
2022-09-28T16:23:08.933Z,3.83
2022-09-28T16:25:49.441Z,6.30
2022-09-28T16:28:28.826Z,3.28
2022-09-28T16:31:07.549Z,4.63
2022-09-28T16:33:43.712Z,4.40
2022-09-28T16:36:17.192Z,4.65
2022-09-28T16:41:24.044Z,2.95
2022-09-28T16:44:00.790Z,2.97
2022-09-28T16:46:37.494Z,2.65
2022-09-28T16:49:18.548Z,4.35
2022-09-28T16:51:50.598Z,4.05
2022-09-28T16:54:42.743Z,5.35
2022-09-28T16:57:15.415Z,2.60
2022-09-28T16:59:47.194Z,2.92
2022-09-28T17:05:17.555Z,3.22
2022-09-28T17:13:01.084Z,2.67
2022-09-28T17:15:32.850Z,2.72
2022-09-28T17:18:06.550Z,3.00
2022-09-28T17:20:39.723Z,6.95
2022-09-28T17:23:11.912Z,4.30
2022-09-28T17:25:44.657Z,4.15
2022-09-28T17:28:20.752Z,4.65
2022-09-28T17:30:52.982Z,4.25
2022-09-28T17:33:26.303Z,2.80
2022-09-28T17:36:00.338Z,4.80
2022-09-28T17:38:34.150Z,4.50
2022-09-28T18:34:56.353Z,4.90
2022-09-28T18:37:28.094Z,5.78
2022-09-28T18:39:59.886Z,6.60
2022-09-28T18:42:32.230Z,5.35
2022-09-28T18:45:05.835Z,5.00
2022-09-28T18:47:37.720Z,5.82
2022-09-28T18:50:12.817Z,5.18
2022-09-28T18:52:47.137Z,6.25
2022-09-28T18:55:19.141Z,5.65
2022-09-28T18:57:51.371Z,8.98
2022-09-28T19:00:23.145Z,11.60
2022-09-28T19:02:55.219Z,7.32
2022-09-28T19:05:28.750Z,14.30
2022-09-28T19:10:32.936Z,19.45
2022-09-28T19:13:04.944Z,17.45
2022-09-28T19:15:37.409Z,19.98
2022-09-28T19:18:09.215Z,19.73
2022-09-28T19:20:44.487Z,19.52
2022-09-28T19:23:16.305Z,19.10
2022-09-28T19:25:48.356Z,17.88
2022-09-28T19:28:20.270Z,18.95
2022-09-28T19:30:59.228Z,19.83
2022-09-28T19:33:31.337Z,17.17
2022-09-28T19:36:06.131Z,16.52
2022-09-28T19:38:39.591Z,18.65
2022-09-28T19:43:44.071Z,14.20
2022-09-28T19:46:15.972Z,15.27
2022-09-28T19:48:48.544Z,14.02
2022-09-28T19:51:21.696Z,16.67
2022-09-28T19:53:53.516Z,12.48
2022-09-28T19:56:25.420Z,15.75
2022-09-28T19:58:57.330Z,14.27
2022-09-28T20:01:30.121Z,14.60
2022-09-28T20:11:39.119Z,14.55
2022-09-28T20:14:15.035Z,13.25
2022-09-28T20:16:46.869Z,16.58
2022-09-28T20:19:21.441Z,3.63
2022-09-28T20:21:58.477Z,5.25
2022-09-28T20:24:31.050Z,5.72
2022-09-28T20:27:02.976Z,3.97
2022-09-28T20:29:35.259Z,3.47
2022-09-28T20:32:07.154Z,4.18
2022-09-28T20:34:38.937Z,4.03
2022-09-28T20:37:13.921Z,3.15
2022-09-28T20:39:45.795Z,3.25
2022-09-28T20:42:17.614Z,5.20
2022-09-28T20:44:49.493Z,5.63
2022-09-28T20:47:21.300Z,2.60
2022-09-28T20:49:53.096Z,3.45
2022-09-28T20:52:26.294Z,4.57
2022-09-28T20:54:58.066Z,3.22
2022-09-28T20:57:29.931Z,3.95
2022-09-28T21:00:02.128Z,3.10
2022-09-28T21:02:33.972Z,4.57
2022-09-28T21:05:06.877Z,5.65
2022-09-28T21:07:40.007Z,5.75
2022-09-28T21:10:11.853Z,3.78
2022-09-28T21:12:48.131Z,5.32
2022-09-28T21:15:19.999Z,5.93
2022-09-28T21:17:51.935Z,3.80
2022-09-28T21:20:26.891Z,10.63
2022-09-28T21:23:00.189Z,47.28
2022-09-28T21:25:32.117Z,19.65
2022-09-28T21:28:03.937Z,16.27
2022-09-28T21:30:35.760Z,20.35
2022-09-28T21:33:07.864Z,12.15
2022-09-28T21:35:39.662Z,13.88
2022-09-28T21:38:12.795Z,8.68
2022-09-28T21:40:44.893Z,6.28
2022-09-28T21:43:17.149Z,7.28
2022-09-28T21:45:50.048Z,10.88
2022-09-28T21:48:23.173Z,8.60
2022-09-28T21:50:56.532Z,7.10
2022-09-28T21:53:31.628Z,7.50
2022-09-28T21:56:05.379Z,6.95
2022-09-28T21:58:37.246Z,5.43
2022-09-28T22:01:15.632Z,5.13
2022-09-28T22:03:50.501Z,6.53
2022-09-28T22:06:24.071Z,5.38
2022-09-28T22:08:57.453Z,4.57
2022-09-28T22:14:01.428Z,6.97
2022-09-28T22:16:33.239Z,8.45
2022-09-28T22:19:05.078Z,5.00
2022-09-28T22:21:36.928Z,6.90
2022-09-28T22:24:10.083Z,11.95
2022-09-28T22:26:42.225Z,13.25
2022-09-28T22:29:14.039Z,10.95
2022-09-28T22:31:45.931Z,7.85
2022-09-28T22:34:17.737Z,11.48
2022-09-28T22:36:49.499Z,6.65
2022-09-28T22:39:22.763Z,6.80
2022-09-28T22:41:54.540Z,8.00
2022-09-28T22:44:26.372Z,6.18
2022-09-28T22:46:58.128Z,9.48
2022-09-28T22:49:29.928Z,8.70
2022-09-28T22:52:01.955Z,7.43
2022-09-28T22:54:35.117Z,7.30
2022-09-28T22:57:07.415Z,6.30
2022-09-28T22:59:39.174Z,5.82
2022-09-28T23:02:10.986Z,4.65
2022-09-28T23:04:42.773Z,3.30
2022-09-28T23:07:14.569Z,5.45
2022-09-28T23:09:47.683Z,4.15
2022-09-28T23:17:22.749Z,5.45
2022-09-28T23:19:54.533Z,5.65
2022-09-28T23:22:26.306Z,7.18
2022-09-28T23:24:59.441Z,3.90
2022-09-28T23:27:31.267Z,4.55
2022-09-28T23:30:03.123Z,3.92
2022-09-28T23:32:34.926Z,4.95
2022-09-28T23:35:07.803Z,27.25
2022-09-28T23:37:39.924Z,6.45
2022-09-28T23:45:16.452Z,5.38
2022-09-28T23:50:20.433Z,4.47
2022-09-28T23:52:52.215Z,4.30
2022-09-28T23:55:25.450Z,4.10
2022-09-28T23:57:58.626Z,5.35
